SV1LH-1 Melissia GR current weather conditions

sailwx.info

Wind from 270 at 0 knots gusting 1

Air temperature 13.3° C
Dewpoint 9.8° C

Last reported at 2016-Feb-12 08:45 UTC.
Time now 2016-Feb-12 09:53 UTC

Location: N 38°03' E 023°51'.
View on Google Maps.

See reports from other nearby stations

  
Tides and Currents Weather Stations Pressure Air Temp Water Temp Dewpoint Dewpoint Depression Visibility Wind Speed Wind Dir Waves Ship Positions
date/time (UTC)wind fromknots sea level pressurealtimeterstation pressurevisibilityair tempwater tempwave heightnotes
2016-Feb-12 08:45 270 0 gusting 1 13.3
2016-Feb-12 08:40 270 0 gusting 2 13.3
2016-Feb-12 08:35 270 1 gusting 1 13.3
2016-Feb-12 08:30 292 1 gusting 2 13.3
2016-Feb-12 08:25 315 0 gusting 1 13.3
2016-Feb-12 08:20 12.8
2016-Feb-12 08:15 315 0 gusting 0 12.8
2016-Feb-12 08:10 247 12.8
2016-Feb-12 08:05 180 12.8
2016-Feb-12 08:00 090 12.8
2016-Feb-12 07:55 090 12.2
2016-Feb-12 07:50 067 12.2
2016-Feb-12 07:45 180 12.2
2016-Feb-12 07:40 112 12.2
2016-Feb-12 07:35 067 11.7
2016-Feb-12 07:30 067 11.7
2016-Feb-12 07:25 090 11.7
2016-Feb-12 07:20 135 11.7
2016-Feb-12 07:15 090 0 gusting 1 11.7
2016-Feb-12 07:10 292 11.7
2016-Feb-12 07:05 135 11.7
2016-Feb-12 07:00 090 11.1
2016-Feb-12 06:55 112 1 gusting 1 11.1
2016-Feb-12 06:50 112 11.1
2016-Feb-12 06:45 135 0 gusting 1 11.1
2016-Feb-12 06:40 090 0 gusting 0 11.1
2016-Feb-12 06:35 090 0 gusting 0 10.6
2016-Feb-12 06:30 090 10.6
2016-Feb-12 06:25 022 0 gusting 1 10.0
2016-Feb-12 06:20 10.0
2016-Feb-12 06:15 090 2 gusting 3 10.0
2016-Feb-12 06:10 022 10.0
2016-Feb-12 06:05 022 0 gusting 0 10.0
2016-Feb-12 06:00 090 1 gusting 1 10.0
2016-Feb-12 05:55 067 10.0
2016-Feb-12 05:50 090 10.0
2016-Feb-12 05:45 112 9.4
2016-Feb-12 05:40 090 0 gusting 1 9.4
2016-Feb-12 05:35 067 8.9
2016-Feb-12 05:30 135 8.9
2016-Feb-12 05:25 090 1 gusting 2 8.9
2016-Feb-12 05:20 135 0 gusting 1 8.9
2016-Feb-12 05:15 090 1 gusting 2 8.9
2016-Feb-12 05:10 045 0 gusting 0 8.9
2016-Feb-12 05:05 045 0 gusting 1 8.3
2016-Feb-12 05:00 090 0 gusting 2 8.9
2016-Feb-12 04:55 067 1 gusting 3 8.9
2016-Feb-12 04:50 112 8.3
2016-Feb-12 04:45 315 8.3
2016-Feb-12 04:40 045 0 gusting 1 8.3
2016-Feb-12 04:35 157 0 gusting 1 8.9
2016-Feb-12 04:30 067 0 gusting 1 8.9
2016-Feb-12 04:25 090 1 gusting 3 8.9
2016-Feb-12 04:20 090 3 gusting 4 8.9
2016-Feb-12 04:15 090 0 gusting 1 8.3
2016-Feb-12 04:10 090 2 gusting 3 8.9
2016-Feb-12 04:05 067 1 gusting 2 8.9
2016-Feb-12 04:00 090 1 gusting 2 8.3
2016-Feb-12 03:55 045 8.3
2016-Feb-12 03:50 045 0 gusting 1 8.3
2016-Feb-12 03:45 112 1 gusting 1 8.3
2016-Feb-12 03:40 067 8.3
2016-Feb-12 03:35 045 8.9
2016-Feb-12 03:30 045 8.9
2016-Feb-12 03:25 067 8.9
2016-Feb-12 03:20 022 8.9
2016-Feb-12 03:15 045 0 gusting 1 9.4
2016-Feb-12 03:10 045 9.4
2016-Feb-12 03:05 045 0 gusting 1 10.0
2016-Feb-12 03:00 090 0 gusting 1 10.0
2016-Feb-12 02:55 090 1 gusting 2 9.4
2016-Feb-12 02:50 090 9.4
2016-Feb-12 02:45 090 1 gusting 1 9.4
2016-Feb-12 02:40 112 1 gusting 2 9.4
2016-Feb-12 02:35 090 0 gusting 1 9.4
2016-Feb-12 02:30 112 0 gusting 0 9.4
2016-Feb-12 02:25 090 1 gusting 2 9.4
2016-Feb-12 02:20 090 9.4
2016-Feb-12 02:15 045 10.0
2016-Feb-12 02:10 225 1 gusting 2 9.4
2016-Feb-12 02:05 112 1 gusting 2 9.4
2016-Feb-12 02:00 112 0 gusting 1 9.4
2016-Feb-12 01:55 090 9.4
2016-Feb-12 01:50 135 0 gusting 1 9.4
2016-Feb-12 01:45 045 0 gusting 1 9.4
2016-Feb-12 01:40 090 2 gusting 3 9.4
2016-Feb-12 01:35 090 8.9
2016-Feb-12 01:30 112 1 gusting 1 8.9
2016-Feb-12 01:25 090 0 gusting 0 9.4
2016-Feb-12 01:20 090 0 gusting 1 9.4
2016-Feb-12 01:15 022 0 gusting 0 9.4
2016-Feb-12 01:10 157 9.4
2016-Feb-12 01:05 067 9.4
2016-Feb-12 01:00 337 10.0
2016-Feb-12 00:55 112 10.0
2016-Feb-12 00:50 090 10.0
2016-Feb-12 00:45 090 0 gusting 1 10.0
2016-Feb-12 00:40 022 10.6
2016-Feb-12 00:35 157 0 gusting 0 10.0
2016-Feb-12 00:30 112 3 gusting 4 10.0
2016-Feb-12 00:25 090 10.0
2016-Feb-12 00:20 022 0 gusting 1 10.0
2016-Feb-12 00:15 067 10.6
2016-Feb-12 00:10 090 0 gusting 1 10.6
2016-Feb-12 00:05 10.6
2016-Feb-12 00:00 022 10.6
2016-Feb-11 23:55 225 0 gusting 1 10.6
2016-Feb-11 23:50 157 0 gusting 1 11.1
2016-Feb-11 23:45 11.1
2016-Feb-11 23:40 315 1 gusting 1 11.1
2016-Feb-11 23:35 202 11.1
2016-Feb-11 23:30 067 2 gusting 4 11.1
2016-Feb-11 23:25 090 2 gusting 4 11.1
2016-Feb-11 23:20 112 1 gusting 2 10.6
2016-Feb-11 23:15 045 1 gusting 2 10.6
2016-Feb-11 23:10 202 0 gusting 1 10.6
2016-Feb-11 23:05 022 0 gusting 3 10.0
2016-Feb-11 23:00 045 1 gusting 1 10.0
2016-Feb-11 22:55 090 0 gusting 0 10.0
2016-Feb-11 22:50 090 0 gusting 0 10.0
2016-Feb-11 22:45 090 1 gusting 2 10.0
2016-Feb-11 22:40 045 0 gusting 0 10.0
2016-Feb-11 22:35 10.0
2016-Feb-11 22:30 022 0 gusting 1 10.0
2016-Feb-11 22:25 022 0 gusting 1 10.0
2016-Feb-11 22:20 090 0 gusting 0 10.0
2016-Feb-11 22:15 10.0
2016-Feb-11 22:10 045 1 gusting 1 10.0
2016-Feb-11 22:05 090 1 gusting 2 10.0
2016-Feb-11 22:00 135 0 gusting 1 10.0
2016-Feb-11 21:55 090 10.0
2016-Feb-11 21:50 225 1 gusting 3 10.0
2016-Feb-11 21:45 112 0 gusting 1 10.0
2016-Feb-11 21:40 157 1 gusting 2 10.0
2016-Feb-11 21:35 112 0 gusting 0 10.0
2016-Feb-11 21:30 045 0 gusting 1 10.0
2016-Feb-11 21:25 045 10.0
2016-Feb-11 21:20 157 10.0
2016-Feb-11 21:15 315 10.0
2016-Feb-11 21:10 270 10.0
2016-Feb-11 21:05 247 0 gusting 1 10.0
2016-Feb-11 21:00 157 10.6
2016-Feb-11 20:55 090 10.6
2016-Feb-11 20:50 157 10.6
2016-Feb-11 20:45 157 10.6
2016-Feb-11 20:40 247 10.6
2016-Feb-11 20:35 202 1 gusting 2 10.6
2016-Feb-11 20:30 247 1 gusting 2 10.6
2016-Feb-11 20:25 202 0 gusting 2 10.6
2016-Feb-11 20:20 180 0 gusting 1 10.6
2016-Feb-11 20:15 180 0 gusting 2 10.6
2016-Feb-11 20:10 202 1 gusting 2 10.6
2016-Feb-11 20:05 202 10.6
2016-Feb-11 20:00 090 1 gusting 2 11.1
2016-Feb-11 19:55 202 0 gusting 2 11.1
2016-Feb-11 19:50 270 0 gusting 2 11.1
2016-Feb-11 19:45 270 1 gusting 6 11.1
2016-Feb-11 19:40 247 11.1
2016-Feb-11 19:35 180 2 gusting 3 10.6
2016-Feb-11 19:30 225 1 gusting 5 10.6
2016-Feb-11 19:25 270 0 gusting 1 10.6
2016-Feb-11 19:20 337 0 gusting 2 10.6
2016-Feb-11 19:15 247 2 gusting 3 10.6
2016-Feb-11 19:10 247 2 gusting 3 10.0
2016-Feb-11 19:05 202 0 gusting 0 10.0
2016-Feb-11 19:00 225 1 gusting 2 10.0
2016-Feb-11 18:55 315 1 gusting 2 10.0
2016-Feb-11 18:50 112 0 gusting 1 10.0
2016-Feb-11 18:45 180 10.0
2016-Feb-11 18:40 045 10.0
2016-Feb-11 18:35 022 0 gusting 0 10.0
2016-Feb-11 18:30 337 1 gusting 3 9.4
2016-Feb-11 18:25 8.9
2016-Feb-11 18:20 045 8.9
2016-Feb-11 18:15 112 8.9
2016-Feb-11 18:10 045 8.9
2016-Feb-11 18:05 067 8.9
2016-Feb-11 18:00 090 8.9
2016-Feb-11 17:55 045 0 gusting 2 8.9
2016-Feb-11 17:50 090 9.4
2016-Feb-11 17:45 090 9.4
2016-Feb-11 17:40 090 0 gusting 1 9.4
2016-Feb-11 17:35 045 9.4
2016-Feb-11 17:30 045 9.4
2016-Feb-11 17:25 090 0 gusting 1 9.4
2016-Feb-11 17:20 067 9.4
2016-Feb-11 17:15 090 0 gusting 1 9.4
2016-Feb-11 17:10 045 9.4
2016-Feb-11 17:05 045 0 gusting 1 9.4
2016-Feb-11 17:00 112 0 gusting 1 10.0
2016-Feb-11 16:55 090 0 gusting 2 10.0
2016-Feb-11 16:50 022 10.0
2016-Feb-11 16:45 045 10.6
2016-Feb-11 16:40 090 1 gusting 2 10.6
2016-Feb-11 16:35 135 10.6
2016-Feb-11 16:30 067 11.1
2016-Feb-11 16:25 045 11.1
2016-Feb-11 16:20 022 11.7
2016-Feb-11 16:15 157 12.2
2016-Feb-11 16:10 112 12.2
2016-Feb-11 16:05 247 1 gusting 3 12.8
2016-Feb-11 16:00 247 12.8
2016-Feb-11 15:55 202 0 gusting 1 13.3
2016-Feb-11 15:50 225 2 gusting 4 13.9
2016-Feb-11 15:45 270 1 gusting 3 14.4
2016-Feb-11 15:40 292 1 gusting 2 15.0
2016-Feb-11 15:35 292 15.0
2016-Feb-11 15:30 270 15.6
2016-Feb-11 15:25 292 2 gusting 4 15.6
2016-Feb-11 15:20 292 2 gusting 4 16.1
2016-Feb-11 15:15 247 0 gusting 2 16.1
2016-Feb-11 15:10 247 4 gusting 6 16.1
2016-Feb-11 15:05 225 1 gusting 3 16.7
2016-Feb-11 15:00 247 2 gusting 4 16.7
2016-Feb-11 14:55 270 1 gusting 2 17.2
2016-Feb-11 14:50 247 2 gusting 4 17.2
2016-Feb-11 14:45 270 17.2
2016-Feb-11 14:40 247 4 gusting 6 17.2
2016-Feb-11 14:35 292 2 gusting 4 17.2
2016-Feb-11 14:30 247 1 gusting 2 17.8
2016-Feb-11 14:25 247 4 gusting 6 18.3
2016-Feb-11 14:20 202 2 gusting 3 18.3
2016-Feb-11 14:15 247 4 gusting 6 18.9
2016-Feb-11 14:10 247 1 gusting 4 18.9
2016-Feb-11 14:05 225 3 gusting 4 19.4
2016-Feb-11 14:00 315 1 gusting 3 18.9
2016-Feb-11 13:55 270 1 gusting 2 18.9
2016-Feb-11 13:50 247 2 gusting 4 18.9
2016-Feb-11 13:45 202 2 gusting 5 19.4
2016-Feb-11 13:40 225 1 gusting 3 18.9
2016-Feb-11 13:35 315 5 gusting 7 19.4
2016-Feb-11 13:30 292 4 gusting 5 19.4
2016-Feb-11 13:25 270 4 gusting 5 19.4
2016-Feb-11 13:20 270 3 gusting 4 19.4
2016-Feb-11 13:15 337 2 gusting 3 19.4
2016-Feb-11 13:10 270 1 gusting 3 19.4
2016-Feb-11 13:05 292 1 gusting 2 19.4
2016-Feb-11 13:00 292 3 gusting 4 19.4
2016-Feb-11 12:55 270 3 gusting 5 19.4
2016-Feb-11 12:50 270 1 gusting 2 20.0
2016-Feb-11 12:45 202 4 gusting 6 19.4
2016-Feb-11 12:40 202 2 gusting 5 19.4
2016-Feb-11 12:35 337 6 gusting 8 19.4
2016-Feb-11 12:30 270 5 gusting 6 19.4
2016-Feb-11 12:25 292 4 gusting 7 19.4
2016-Feb-11 12:20 315 4 gusting 6 19.4
2016-Feb-11 12:15 270 5 gusting 6 19.4
2016-Feb-11 12:10 270 4 gusting 6 19.4
2016-Feb-11 12:05 270 3 gusting 5 18.9
2016-Feb-11 12:00 292 5 gusting 8 18.9
2016-Feb-11 11:55 225 4 gusting 5 18.9
2016-Feb-11 11:50 315 4 gusting 7 18.9
2016-Feb-11 11:45 270 6 gusting 8 18.9
2016-Feb-11 11:40 270 4 gusting 6 18.9
2016-Feb-11 11:35 18.9
2016-Feb-11 11:30 270 4 gusting 6 18.9
2016-Feb-11 11:25 315 5 gusting 8 19.4
2016-Feb-11 11:20 270 3 gusting 5 18.9
2016-Feb-11 11:15 292 3 gusting 5 18.9
2016-Feb-11 11:10 292 6 gusting 9 18.9
2016-Feb-11 11:05 337 5 gusting 7 18.9
2016-Feb-11 11:00 270 4 gusting 7 19.4
2016-Feb-11 10:55 315 5 gusting 6 18.9
2016-Feb-11 10:50 292 7 gusting 11 18.9
2016-Feb-11 10:45 247 6 gusting 12 19.4
2016-Feb-11 10:40 270 3 gusting 6 19.4
2016-Feb-11 10:35 247 2 gusting 5 19.4
2016-Feb-11 10:30 292 7 gusting 11 19.4
2016-Feb-11 10:25 270 4 gusting 5 20.0
2016-Feb-11 10:20 225 2 gusting 4 19.4
2016-Feb-11 10:15 292 4 gusting 5 20.0
2016-Feb-11 10:10 270 5 gusting 6 20.0
2016-Feb-11 10:05 337 3 gusting 5 20.6
2016-Feb-11 10:00 202 0 gusting 2 20.6
2016-Feb-11 09:55 315 2 gusting 4 20.6
2016-Feb-11 09:50 180 3 gusting 4 20.6
2016-Feb-11 09:45 090 0 gusting 2 20.0
2016-Feb-11 09:40 180 2 gusting 4 20.0
2016-Feb-11 09:35 292 0 gusting 2 20.0
2016-Feb-11 09:30 315 3 gusting 5 19.4
2016-Feb-11 09:25 225 4 gusting 5 18.9
2016-Feb-11 09:20 202 2 gusting 4 18.9
2016-Feb-11 09:15 270 2 gusting 4 18.3
2016-Feb-11 09:10 270 5 gusting 7 18.3
2016-Feb-11 09:05 270 3 gusting 5 17.8
2016-Feb-11 09:00 270 3 gusting 5 17.8
2016-Feb-11 08:55 247 6 gusting 8 17.8
2016-Feb-11 08:50 247 4 gusting 7 17.8
2016-Feb-11 08:45 225 4 gusting 6 17.8
2016-Feb-11 08:40 247 4 gusting 6 18.3
2016-Feb-11 08:35 270 3 gusting 5 18.3
2016-Feb-11 08:30 292 3 gusting 5 18.9
2016-Feb-11 08:25 247 2 gusting 3 19.4
2016-Feb-11 08:20 225 4 gusting 5 19.4
2016-Feb-11 08:15 225 0 gusting 1 18.9
2016-Feb-11 08:10 270 2 gusting 4 18.9
2016-Feb-11 08:05 270 1 gusting 3 18.9
2016-Feb-11 08:00 270 2 gusting 4 18.3
2016-Feb-11 07:55 292 1 gusting 3 18.3
2016-Feb-11 07:50 315 1 gusting 1 18.3
2016-Feb-11 07:45 315 0 gusting 1 18.3
2016-Feb-11 07:40 270 2 gusting 5 17.8
2016-Feb-11 07:35 270 1 gusting 3 18.3
2016-Feb-11 07:30 270 1 gusting 2 18.3
2016-Feb-11 07:25 270 18.3
2016-Feb-11 07:20 337 18.3
2016-Feb-11 07:15 135 18.3
2016-Feb-11 07:10 247 17.8
2016-Feb-11 07:05 180 16.7
2016-Feb-11 07:00 045 16.7
2016-Feb-11 06:55 15.6
2016-Feb-11 06:50 292 15.0
2016-Feb-11 06:45 337 1 gusting 1 13.9
2016-Feb-11 06:40 13.3
2016-Feb-11 06:35 270 0 gusting 1 12.8
2016-Feb-11 06:30 337 1 gusting 2 12.2
2016-Feb-11 06:25 315 0 gusting 1 11.7
2016-Feb-11 06:20 315 11.1
2016-Feb-11 06:15 067 0 gusting 2 10.0
2016-Feb-11 06:10 090 1 gusting 2 9.4
2016-Feb-11 06:05 067 1 gusting 1 8.9
2016-Feb-11 06:00 045 0 gusting 0 8.3
2016-Feb-11 05:55 045 7.2
2016-Feb-11 05:50 090 7.2
2016-Feb-11 05:45 090 1 gusting 1 7.2
2016-Feb-11 05:40 090 7.2
2016-Feb-11 05:35 7.2
2016-Feb-11 05:30 090 0 gusting 1 7.2
2016-Feb-11 05:25 045 1 gusting 1 7.2
2016-Feb-11 05:20 157 2 gusting 4 7.8
2016-Feb-11 05:15 090 0 gusting 1 7.8
2016-Feb-11 05:10 090 2 gusting 3 7.8
2016-Feb-11 05:05 090 1 gusting 2 7.8
2016-Feb-11 05:00 112 1 gusting 2 7.8
2016-Feb-11 04:55 045 8.3
2016-Feb-11 04:50 045 0 gusting 1 8.3
2016-Feb-11 04:45 202 8.3
2016-Feb-11 04:40 8.9
2016-Feb-11 04:35 8.9
2016-Feb-11 04:30 337 3 gusting 4 8.9
2016-Feb-11 04:25 315 4 gusting 6 8.9
2016-Feb-11 04:20 315 3 gusting 4 8.9
2016-Feb-11 04:15 292 2 gusting 4 8.9
2016-Feb-11 04:10 270 3 gusting 5 8.9
2016-Feb-11 04:05 8.9
2016-Feb-11 04:00 270 1 gusting 4 8.9
2016-Feb-11 03:55 270 4 gusting 6 8.9
2016-Feb-11 03:50 247 1 gusting 2 8.9
2016-Feb-11 03:45 315 8.9
2016-Feb-11 03:40 202 8.9
2016-Feb-11 03:35 315 0 gusting 1 9.4
2016-Feb-11 03:30 315 2 gusting 3 9.4
2016-Feb-11 03:25 270 3 gusting 5 9.4
2016-Feb-11 03:20 337 0 gusting 2 9.4
2016-Feb-11 03:15 337 2 gusting 3 9.4
2016-Feb-11 03:10 090 0 gusting 1 10.0
2016-Feb-11 03:05 135 10.0
2016-Feb-11 03:00 090 4 gusting 5 10.0
2016-Feb-11 02:55 090 2 gusting 4 10.0
2016-Feb-11 02:50 112 1 gusting 1 10.0
2016-Feb-11 02:45 090 1 gusting 3 10.0
2016-Feb-11 02:40 135 10.0
2016-Feb-11 02:35 090 10.6
2016-Feb-11 02:30 202 10.6
2016-Feb-11 02:25 247 0 gusting 0 10.6
2016-Feb-11 02:20 202 10.6
2016-Feb-11 02:15 225 10.6
2016-Feb-11 02:10 247 10.6
2016-Feb-11 02:05 022 11.1
2016-Feb-11 02:00 11.1
2016-Feb-11 01:55 292 1 gusting 3 11.1
2016-Feb-11 01:50 202 4 gusting 6 11.1
2016-Feb-11 01:45 292 2 gusting 5 11.1
2016-Feb-11 01:40 202 2 gusting 5 11.1
2016-Feb-11 01:35 315 1 gusting 3 11.1
2016-Feb-11 01:30 270 1 gusting 4 11.1
2016-Feb-11 01:25 157 0 gusting 1 11.1
2016-Feb-11 01:20 135 1 gusting 3 11.1
2016-Feb-11 01:15 337 1 gusting 3 11.1
2016-Feb-11 01:10 270 2 gusting 4 11.1
2016-Feb-11 01:05 202 5 gusting 9 11.1
2016-Feb-11 01:00 292 11.1
2016-Feb-11 00:55 247 5 gusting 8 11.1
2016-Feb-11 00:50 247 3 gusting 4 11.1
2016-Feb-11 00:45 270 3 gusting 9 11.1
2016-Feb-11 00:40 270 2 gusting 4 11.1
2016-Feb-11 00:35 202 1 gusting 3 11.7
2016-Feb-11 00:30 247 3 gusting 6 11.7
2016-Feb-11 00:25 247 4 gusting 7 11.7
2016-Feb-11 00:20 135 1 gusting 4 11.7
2016-Feb-11 00:15 292 3 gusting 5 11.7
2016-Feb-11 00:10 180 2 gusting 6 11.7
2016-Feb-11 00:05 247 3 gusting 6 11.7
2016-Feb-11 00:00 202 3 gusting 6 11.7
2016-Feb-10 23:55 202 4 gusting 6 11.7
2016-Feb-10 23:50 225 5 gusting 7 11.7
2016-Feb-10 23:45 247 6 gusting 10 11.7
2016-Feb-10 23:40 135 2 gusting 4 11.7
2016-Feb-10 23:35 270 5 gusting 7 11.7
2016-Feb-10 23:30 225 5 gusting 8 11.1
2016-Feb-10 23:25 225 4 gusting 6 11.1
2016-Feb-10 23:20 225 3 gusting 5 11.1
2016-Feb-10 23:15 202 4 gusting 7 11.1
2016-Feb-10 23:10 202 6 gusting 10 11.1
2016-Feb-10 23:05 225 5 gusting 8 11.1
2016-Feb-10 23:00 292 4 gusting 7 11.1
2016-Feb-10 22:55 247 4 gusting 6 11.1
2016-Feb-10 22:50 202 5 gusting 9 11.1
2016-Feb-10 22:45 202 1 gusting 6 11.1
2016-Feb-10 22:40 225 5 gusting 9 11.1
2016-Feb-10 22:35 247 6 gusting 9 11.1
2016-Feb-10 22:30 180 4 gusting 6 11.1
2016-Feb-10 22:25 270 2 gusting 5 11.1
2016-Feb-10 22:20 157 4 gusting 7 11.1
2016-Feb-10 22:15 247 6 gusting 11 11.1
2016-Feb-10 22:10 157 6 gusting 10 11.1
2016-Feb-10 22:05 270 5 gusting 9 11.1
2016-Feb-10 22:00 292 6 gusting 10 11.1
2016-Feb-10 21:55 157 3 gusting 5 11.1
2016-Feb-10 21:50 202 4 gusting 8 11.7
2016-Feb-10 21:45 247 8 gusting 16 11.7
2016-Feb-10 21:40 247 5 gusting 12 11.7
2016-Feb-10 21:35 225 6 gusting 10 11.7
2016-Feb-10 21:30 225 3 gusting 5 11.7
2016-Feb-10 21:25 157 6 gusting 9 11.7
2016-Feb-10 21:20 247 7 gusting 11 12.2
2016-Feb-10 21:15 270 5 gusting 8 12.2
2016-Feb-10 21:10 270 4 gusting 6 12.2
2016-Feb-10 21:05 225 3 gusting 8 12.2
2016-Feb-10 21:00 247 4 gusting 13 12.2
2016-Feb-10 20:55 202 4 gusting 10 12.2
2016-Feb-10 20:50 225 6 gusting 11 12.2
2016-Feb-10 20:45 090 2 gusting 5 12.2
2016-Feb-10 20:40 202 5 gusting 7 11.7
2016-Feb-10 20:35 112 2 gusting 5 11.7
2016-Feb-10 20:30 202 3 gusting 4 11.7
2016-Feb-10 20:25 135 2 gusting 5 11.7
2016-Feb-10 20:20 180 3 gusting 6 11.7
2016-Feb-10 20:15 225 2 gusting 4 11.7
2016-Feb-10 20:10 180 4 gusting 5 11.7
2016-Feb-10 20:05 135 6 gusting 7 11.7
2016-Feb-10 20:00 202 3 gusting 6 11.7
2016-Feb-10 19:55 112 3 gusting 5 12.2
2016-Feb-10 19:50 225 2 gusting 4 12.2
2016-Feb-10 19:45 225 3 gusting 7 12.2
2016-Feb-10 19:40 202 6 gusting 10 12.2
2016-Feb-10 19:35 180 5 gusting 6 12.2
2016-Feb-10 19:30 247 4 gusting 6 12.2
2016-Feb-10 19:25 180 5 gusting 6 12.2
2016-Feb-10 19:20 180 4 gusting 6 12.2
2016-Feb-10 19:15 292 8 gusting 11 12.2
2016-Feb-10 19:10 202 5 gusting 9 12.2
2016-Feb-10 19:05 225 8 gusting 11 12.2
2016-Feb-10 19:00 292 5 gusting 12 12.2
2016-Feb-10 18:55 180 5 gusting 7 12.2
2016-Feb-10 18:50 180 6 gusting 13 12.2
2016-Feb-10 18:45 225 5 gusting 7 12.2
2016-Feb-10 18:40 202 1 gusting 6 12.2
2016-Feb-10 18:35 247 3 gusting 6 11.7
2016-Feb-10 18:30 202 2 gusting 3 12.2
2016-Feb-10 18:25 180 2 gusting 3 12.2
2016-Feb-10 18:20 180 3 gusting 6 12.2
2016-Feb-10 18:15 225 5 gusting 6 12.2
2016-Feb-10 18:10 135 2 gusting 3 12.2
2016-Feb-10 18:05 202 2 gusting 6 12.2
2016-Feb-10 18:00 135 3 gusting 5 12.2
2016-Feb-10 17:55 180 2 gusting 5 12.2
2016-Feb-10 17:50 202 3 gusting 5 12.2
2016-Feb-10 17:45 202 6 gusting 7 11.7
2016-Feb-10 17:40 225 1 gusting 5 11.7
2016-Feb-10 17:35 202 4 gusting 6 11.7
2016-Feb-10 17:30 247 6 gusting 9 11.7
2016-Feb-10 17:25 180 7 gusting 13 11.7
2016-Feb-10 17:20 202 7 gusting 11 11.7
2016-Feb-10 17:15 157 6 gusting 10 11.1
2016-Feb-10 17:10 180 2 gusting 5 11.1
2016-Feb-10 17:05 180 3 gusting 5 10.6
2016-Feb-10 17:00 067 1 gusting 2 10.6
2016-Feb-10 16:55 135 4 gusting 6 10.6
2016-Feb-10 16:50 157 2 gusting 4 11.1
2016-Feb-10 16:45 180 3 gusting 6 11.1
2016-Feb-10 16:40 180 5 gusting 9 11.1
2016-Feb-10 16:35 135 3 gusting 6 11.1
2016-Feb-10 16:30 180 1 gusting 4 11.1
2016-Feb-10 16:25 247 4 gusting 7 11.1
2016-Feb-10 16:20 135 3 gusting 6 11.1
2016-Feb-10 16:15 112 2 gusting 3 11.1
2016-Feb-10 16:10 157 4 gusting 8 11.1
2016-Feb-10 16:05 112 2 gusting 3 11.1
2016-Feb-10 16:00 180 2 gusting 4 11.1
2016-Feb-10 15:55 112 2 gusting 3 11.7
2016-Feb-10 15:50 225 3 gusting 5 11.7
2016-Feb-10 15:45 157 3 gusting 8 12.2
2016-Feb-10 15:40 157 3 gusting 4 12.2
2016-Feb-10 15:35 202 4 gusting 6 12.2
2016-Feb-10 15:30 180 4 gusting 6 12.2
2016-Feb-10 15:25 112 1 gusting 1 11.7
2016-Feb-10 15:20 202 2 gusting 3 11.7
2016-Feb-10 15:15 157 2 gusting 5 11.7
2016-Feb-10 15:10 180 2 gusting 3 11.7
2016-Feb-10 15:05 225 1 gusting 4 11.7
2016-Feb-10 15:00 225 3 gusting 5 11.7
2016-Feb-10 14:55 202 1 gusting 5 11.7
2016-Feb-10 14:50 180 2 gusting 3 11.7
2016-Feb-10 14:45 180 3 gusting 6 11.7
2016-Feb-10 14:40 202 2 gusting 4 11.7
2016-Feb-10 14:35 157 1 gusting 2 11.7
2016-Feb-10 14:30 180 2 gusting 3 11.7
2016-Feb-10 14:25 247 2 gusting 3 11.7
2016-Feb-10 14:20 225 0 gusting 1 11.7
2016-Feb-10 14:15 247 1 gusting 2 11.7
2016-Feb-10 14:10 180 11.7
2016-Feb-10 14:05 225 2 gusting 3 11.7
2016-Feb-10 14:00 180 1 gusting 2 12.2
2016-Feb-10 13:55 202 2 gusting 4 12.2
2016-Feb-10 13:50 202 1 gusting 3 12.2
2016-Feb-10 13:45 180 1 gusting 3 12.2
2016-Feb-10 13:40 180 2 gusting 5 12.2
2016-Feb-10 13:35 225 3 gusting 5 12.2
2016-Feb-10 13:30 202 5 gusting 6 12.2
2016-Feb-10 13:25 180 3 gusting 5 12.2
2016-Feb-10 13:20 225 2 gusting 3 12.2
2016-Feb-10 13:15 225 2 gusting 6 12.2
2016-Feb-10 13:10 225 5 gusting 6 12.2
2016-Feb-10 13:05 202 4 gusting 6 12.2
2016-Feb-10 13:00 270 3 gusting 5 12.2
2016-Feb-10 12:55 157 4 gusting 6 12.2
2016-Feb-10 12:50 225 5 gusting 8 12.2
2016-Feb-10 12:45 202 4 gusting 6 12.2
2016-Feb-10 12:40 202 5 gusting 7 12.2
2016-Feb-10 12:35 202 6 gusting 9 12.2
2016-Feb-10 12:30 292 1 gusting 2 12.2
2016-Feb-10 12:25 225 2 gusting 3 12.2
2016-Feb-10 12:20 202 5 gusting 7 12.2
2016-Feb-10 12:15 225 1 gusting 4 12.2
2016-Feb-10 12:10 270 3 gusting 6 12.2
2016-Feb-10 12:05 315 4 gusting 6 12.2
2016-Feb-10 12:00 247 4 gusting 10 12.2
2016-Feb-10 11:55 202 4 gusting 9 12.2
2016-Feb-10 11:50 292 2 gusting 6 12.2
2016-Feb-10 11:45 180 5 gusting 8 12.2
2016-Feb-10 11:40 225 6 gusting 8 12.2
2016-Feb-10 11:35 270 5 gusting 6 12.2
2016-Feb-10 11:30 225 2 gusting 4 12.2
2016-Feb-10 11:25 225 4 gusting 6 12.2
2016-Feb-10 11:20 247 3 gusting 6 12.2
2016-Feb-10 11:15 270 1 gusting 3 12.2
2016-Feb-10 11:10 225 0 gusting 2 12.8
2016-Feb-10 11:05 270 3 gusting 4 12.8
2016-Feb-10 11:00 247 4 gusting 8 12.8
2016-Feb-10 10:55 225 5 gusting 7 12.8
2016-Feb-10 10:50 247 5 gusting 10 12.8
2016-Feb-10 10:45 180 5 gusting 9 12.8
2016-Feb-10 10:40 247 6 gusting 9 13.3
2016-Feb-10 10:35 225 4 gusting 6 12.8
2016-Feb-10 10:30 225 3 gusting 6 12.8
2016-Feb-10 10:25 247 4 gusting 6 12.2
2016-Feb-10 10:20 180 5 gusting 6 12.2
2016-Feb-10 10:15 247 3 gusting 5 12.2
2016-Feb-10 10:10 202 2 gusting 5 11.7
2016-Feb-10 10:05 202 5 gusting 8 11.7
2016-Feb-10 10:00 225 4 gusting 6 11.7
2016-Feb-10 09:55 202 3 gusting 6 11.7
2016-Feb-10 09:50 225 2 gusting 6 11.7
2016-Feb-10 09:45 270 2 gusting 6 11.7
2016-Feb-10 09:40 270 4 gusting 6 11.7
2016-Feb-10 09:35 270 1 gusting 3 11.7
2016-Feb-10 09:30 247 2 gusting 6 11.7
2016-Feb-10 09:25 112 1 gusting 4 11.7
2016-Feb-10 09:20 225 1 gusting 3 11.7
2016-Feb-10 09:15 247 1 gusting 3 11.7
2016-Feb-10 09:10 270 1 gusting 3 11.7
2016-Feb-10 09:05 225 2 gusting 4 11.7
2016-Feb-10 09:00 225 1 gusting 3 11.7